Latest METARs, TAFs and NOTAMs for LIRQ


---------------------------------------------------------------------------
	(OBSERVATIONS)
LIRQ 230350Z VRB01KT 9999 BKN040 06/04 Q1017=
LIRQ 230320Z VRB01KT 9999 BKN040 07/05 Q1017=
LIRQ 230250Z 13003KT 9999 BKN040 07/05 Q1016=
LIRQ 230220Z VRB02KT 9999 BKN040 07/04 Q1016=
LIRQ 230150Z 19003KT 170V230 9999 BKN040 07/04 Q1016=
---------------------------------------------------------------------------
	(FC)
Sorry, FC For LIRQ Not Found
---------------------------------------------------------------------------
	(TERMINAL AREA FORECAST)
LIRQ 222300Z 2300/2324 04006KT 9999 BKN030=
---------------------------------------------------------------------------
	(NOTAMS)


LIRQ B0129/18 RUNWAY THRESHOLD INDENTIFICATION LIGHTS (RTIL)
    RWY05 UNSERVICEABLE. REF AIP AD 2 LIRQ 1-6. 08 JAN 09:19
    2018 UNTIL 31 JAN 23:59 2018 ESTIMATED. CREATED: 08 JAN 09:19
    2018

LIRQ B0173/18 EDGE LIGHTS ON APRON 100, 200 AND 300 UNSERVICEABLE
    DUE TO WIP REF AIP AD 2 LIRQ 2-5. 09 JAN 10:23 2018 UNTIL
    01 APR 22:59 2018 ESTIMATED. CREATED: 09 JAN 10:23 2018

LIRQ B0410/18 RWY 05/23 CLOSED TO ALL TRAFFIC DUE TO WIP REF
    AIP AD 2 LIRQ 2-1. DAILY 2259-0500, 22 JAN 22:59 2018 UNTIL
    28 FEB 05:00 2018. CREATED: 20 JAN 10:40 2018

LIRQ B1784/17 REF AIP AD 2 LIRQ 2-5 'AIRCRAFT PARKING DOCKING
    CHART' BOX 'STAND NUMBER - MAX ACFT ALLOWED' ACFT STANDS
    201, 203 AND 206 MAX ACFT ALLOWED CHG TO READ: - 201 - GLEX/GLF5/E190
    - 203 - GLEX/GLF5/A318/A319/E190 - 206 - GLEX/GLF5/A318/A319/E190.
    07 APR 18:18 2017 UNTIL PERM. CREATED: 07 APR 18:18 2017

LIRQ B2184/17 REF AOC TYPE B NR RQ 3/3 NEW OBSTACLE ERECTED BUILDING
    PENETRATING TAKE-OFF CLIMB SURFACE RWY05 (IN CURVE) POINTS
    PSN COORD (WGS-84): - 434929.7N 0111314.4E - 434928.3N 0111316.0E
    - 434929.2N 0111317.1E - 434930.4N 0111315.5E - 434929.7N
    0111314.4E MAX ELEV AGL 16.6M/54.5FT MAX ELEV AMSL 75.1M/246.4FT
    ICAO SIGNAL UNPROVIDED. 03 MAY 08:27 2017 UNTIL PERM. CREATED:
    03 MAY 08:27 2017

LIRQ B4964/17 REF AIP AD 2 LIRQ 6-24 (AIP AIRAC AMDT 10/17 -
    EFFECTIVE DATE 9 NOV 2017) STANDARD INSTRUMENT DEPARTURE
    PROCEDURE PRT VOR RWY 05/23 MODIFY SID NAME TO READ MAREL
    5H INSTEAD OF MAREL 5C DUE TO A MISSPRINTING. 09 NOV 00:00
    2017 UNTIL PERM. CREATED: 03 OCT 09:37 2017

LIRQ B5189/17 REF AIP AD 2 LIRQ 4-23 (AIP AIRAC AMDT 10/17 -
    EFFECTIVE DATE 09 NOV 2017) STANDARD INSTRUMENT ARRIVAL PROCEDURE
    DESCRIPTION STAR PIS 2X (ATC DISCRETION) MODIFY MINIMUM CROSSING
    ALTITUDE AS FLW: PIS VOR/DME - RDL 099/15NM PIS VOR/DME (INT
    RDL 240 PRT VOR): 6000FT, RDL 099/15NM PIS VOR/DME (INT RDL
    240 PRT VOR) - GONGA: 5000FT. 09 NOV 00:00 2017 UNTIL PERM.
    CREATED: 13 OCT 09:36 2017

LIRQ B5193/17 REF AIP AD 2 LIRQ 4-21 AND 4-23 (AIP AIRAC AMDT
    10/17 - EFFECTIVE DATE 9 NOV 2017) STANDARD INSTRUMENT ARRIVAL
    PROCEDURE STAR AKUTO 1X SHALL BE CONSIDERED ATC DISCRETION
    INSTEAD OF FLIGHT PLANNABLE. 09 NOV 00:00 2017 UNTIL PERM.
    CREATED: 13 OCT 10:32 2017

LIRQ B6692/17 LOCALIZER (ILS) RWY05 UNSERVICEABLE DUE TO MAINT.
    REF AIP AD 2 LIRQ 1-7. 24 JAN 07:00 2018 UNTIL 24 JAN 17:00
    2018. CREATED: 21 DEC 08:19 2017

---------------------------------------------------------------------------